Time;durP1;ratioP1;P1;durP2;ratioP2;P2;SDS_P1;SDS_P2;PMS_P1;PMS_P2;Temp;Humidity;BMP_temperature;BMP_pressure;BME280_temperature;BME280_humidity;BME280_pressure;Samples;Min_cycle;Max_cycle;Signal;HPM_P1;HPM_P2
2022/02/06 00:02:24;;;;;;;;;;;;;;;15.74;49.42;99409.25;4429110;32;19997;-70
2022/02/06 00:04:50;;;;;;;;;;;;;;;15.69;49.40;99407.19;4428919;32;19953;-69
2022/02/06 00:07:16;;;;;;;;;;;;;;;15.65;50.20;99389.59;4428214;32;20275;-69
2022/02/06 00:09:43;;;;;;;;;;;;;;;15.75;50.61;99379.62;4427584;32;20010;-70
2022/02/06 00:12:09;;;;;;;;;;;;;;;15.73;51.53;99385.03;4427765;32;19957;-69
2022/02/06 00:14:35;;;;;;;;;;;;;;;15.34;52.52;99386.78;4430466;32;20016;-69
2022/02/06 00:17:01;;;;;;;;;;;;;;;15.10;53.94;99403.31;4428318;32;20391;-69
2022/02/06 00:19:28;;;;;;;;;;;;;;;15.63;53.14;99400.69;4428636;32;20020;-69
2022/02/06 00:21:53;;;;;;;;;;;;;;;15.62;53.09;99389.84;4429091;32;19999;-69
2022/02/06 00:24:27;;;;;;;;;;;;;;;15.22;53.46;99413.47;4429052;32;19968;-69
2022/02/06 00:27:00;;;;;;;;;;;;;;;15.57;52.81;99414.03;4429748;32;19969;-69
2022/02/06 00:29:39;;;;;;;;;;;;;;;15.37;53.32;99402.03;4417816;32;19981;-69
2022/02/06 00:32:09;;;;;;;;;;;;;;;15.55;52.35;99404.47;4418162;32;19957;-69
2022/02/06 00:39:58;;;;;;;;;;;;;;;15.75;52.11;99390.97;4430105;32;19958;-70
2022/02/06 00:42:24;;;;;;;;;;;;;;;15.19;52.92;99388.19;4426332;32;20048;-70
2022/02/06 00:44:50;;;;;;;;;;;;;;;15.11;52.66;99373.72;4425657;32;20268;-70
2022/02/06 00:47:15;;;;;;;;;;;;;;;15.29;52.84;99376.19;4428147;32;20037;-70
2022/02/06 00:49:43;;;;;;;;;;;;;;;15.23;52.93;99406.53;4429652;32;20279;-69
2022/02/06 00:52:15;;;;;;;;;;;;;;;15.34;53.17;99372.59;4428934;32;19957;-70
2022/02/06 00:54:41;;;;;;;;;;;;;;;15.51;53.25;99376.37;4427412;32;19962;-69
2022/02/06 00:57:07;;;;;;;;;;;;;;;15.56;52.89;99375.63;4428869;32;20793;-68
2022/02/06 00:59:32;;;;;;;;;;;;;;;15.66;52.58;99370.53;4429224;32;19964;-70
2022/02/06 01:01:57;;;;;;;;;;;;;;;15.29;53.11;99375.41;4423476;32;19992;-70
2022/02/06 01:04:23;;;;;;;;;;;;;;;15.30;53.20;99379.78;4426322;32;19953;-70
2022/02/06 01:06:49;;;;;;;;;;;;;;;15.77;52.21;99376.25;4427153;32;20029;-70
2022/02/06 01:09:17;;;;;;;;;;;;;;;15.94;51.80;99380.75;4426264;32;19996;-70
2022/02/06 01:11:42;;;;;;;;;;;;;;;15.80;52.28;99372.41;4413115;32;19997;-70
2022/02/06 01:14:20;;;;;;;;;;;;;;;15.82;51.87;99364.19;4424829;32;20335;-70
2022/02/06 01:17:15;;;;;;;;;;;;;;;15.71;52.27;99362.06;4427377;32;19954;-70
2022/02/06 01:19:44;;;;;;;;;;;;;;;15.62;52.07;99344.47;4426782;32;20166;-70
2022/02/06 01:22:12;;;;;;;;;;;;;;;15.88;51.76;99345.91;4411678;32;19953;-70
2022/02/06 01:24:45;;;;;;;;;;;;;;;16.10;51.12;99339.53;4426648;32;19985;-71
2022/02/06 01:27:15;;;;;;;;;;;;;;;15.74;52.03;99327.00;4430966;32;19980;-70
2022/02/06 01:32:25;;;;;;;;;;;;;;;16.35;51.06;99340.69;3958010;32;15722530;-69
2022/02/06 01:34:58;;;;;;;;;;;;;;;16.35;51.06;99340.69;4445408;32;20044;-69
2022/02/06 01:37:30;;;;;;;;;;;;;;;15.94;51.90;99314.72;4442989;32;20299;-69
2022/02/06 01:42:40;;;;;;;;;;;;;;;15.94;51.69;99337.41;3950976;32;15725416;-70
2022/02/06 01:45:26;;;;;;;;;;;;;;;15.94;51.69;99337.41;4435879;32;20015;-70
2022/02/06 02:04:34;;;;;;;;;;;;;;;16.34;51.96;99305.84;3952936;32;15723552;-70
2022/02/06 02:25:45;;;;;;;;;;;;;;;15.67;53.01;99253.75;3952907;32;15724315;-70
2022/02/06 02:47:34;;;;;;;;;;;;;;;15.57;53.58;99189.25;4413149;32;20001;-70
2022/02/06 02:50:05;;;;;;;;;;;;;;;15.37;53.78;99201.56;4433524;32;20010;-70
2022/02/06 02:55:29;;;;;;;;;;;;;;;15.57;53.29;99190.06;4428361;32;19989;-70
2022/02/06 02:58:14;;;;;;;;;;;;;;;15.22;53.71;99183.91;4428494;32;20137;-70
2022/02/06 03:00:49;;;;;;;;;;;;;;;15.59;53.28;99167.63;4415966;32;19993;-70
2022/02/06 03:03:18;;;;;;;;;;;;;;;15.50;53.52;99179.19;4430114;32;19958;-70
2022/02/06 03:05:47;;;;;;;;;;;;;;;15.72;52.94;99187.00;4427293;32;19993;-70
2022/02/06 03:08:12;;;;;;;;;;;;;;;15.73;53.28;99143.94;4430369;32;20028;-70
2022/02/06 03:10:38;;;;;;;;;;;;;;;15.36;53.97;99160.28;4431783;32;20030;-70
2022/02/06 03:13:07;;;;;;;;;;;;;;;15.86;53.00;99157.63;4426623;32;20007;-70
2022/02/06 03:18:17;;;;;;;;;;;;;;;15.99;52.68;99152.25;3951561;32;15724462;-71
2022/02/06 03:20:43;;;;;;;;;;;;;;;15.75;53.15;99130.03;4434106;32;19989;-71
2022/02/06 03:23:10;;;;;;;;;;;;;;;15.84;53.35;99131.84;4429385;32;20039;-71
2022/02/06 03:25:45;;;;;;;;;;;;;;;15.87;53.36;99119.47;4430842;32;20007;-71
2022/02/06 03:28:10;;;;;;;;;;;;;;;15.49;53.94;99111.66;4435264;32;19958;-71
2022/02/06 03:30:35;;;;;;;;;;;;;;;15.32;54.37;99110.81;4435733;32;19984;-71
2022/02/06 03:33:01;;;;;;;;;;;;;;;15.40;54.22;99101.31;4434523;32;19957;-71
2022/02/06 03:35:27;;;;;;;;;;;;;;;15.88;53.54;99096.28;4433299;32;19984;-71
2022/02/06 03:37:52;;;;;;;;;;;;;;;16.07;53.06;99084.44;4437545;32;19976;-71
2022/02/06 03:40:22;;;;;;;;;;;;;;;15.87;53.25;99091.88;4437703;32;20433;-72
2022/02/06 03:43:06;;;;;;;;;;;;;;;15.90;53.43;99078.75;4434748;32;19971;-72
2022/02/06 03:45:39;;;;;;;;;;;;;;;15.91;53.25;99072.56;4436686;32;20017;-71
2022/02/06 03:48:17;;;;;;;;;;;;;;;15.86;53.38;99078.22;4431250;32;20700;-71
2022/02/06 03:50:48;;;;;;;;;;;;;;;15.91;53.23;99085.94;4434544;32;19961;-70
2022/02/06 03:53:18;;;;;;;;;;;;;;;15.84;53.37;99075.12;4435448;32;20155;-70
2022/02/06 03:55:44;;;;;;;;;;;;;;;16.22;52.92;99060.16;4434966;32;20335;-70
2022/02/06 03:58:09;;;;;;;;;;;;;;;16.15;52.99;99062.75;4436040;32;20330;-70
2022/02/06 04:00:35;;;;;;;;;;;;;;;15.88;53.08;99058.63;4432186;32;20383;-70
2022/02/06 04:03:02;;;;;;;;;;;;;;;16.21;53.01;99060.66;4434458;32;19960;-70
2022/02/06 04:05:28;;;;;;;;;;;;;;;16.31;52.54;99053.44;4433558;32;19949;-70
2022/02/06 04:07:54;;;;;;;;;;;;;;;16.27;52.72;99047.25;4421665;32;20001;-70
2022/02/06 04:10:20;;;;;;;;;;;;;;;16.31;52.39;99053.44;4435821;32;20023;-69
2022/02/06 04:12:47;;;;;;;;;;;;;;;16.16;52.55;99042.34;4433448;32;19960;-69
2022/02/06 04:15:23;;;;;;;;;;;;;;;16.12;52.71;99053.22;4433734;32;20413;-70
2022/02/06 04:17:56;;;;;;;;;;;;;;;16.14;52.59;99042.09;4435220;32;20000;-69
2022/02/06 04:20:21;;;;;;;;;;;;;;;16.07;52.62;99050.38;4433759;32;19966;-69
2022/02/06 04:22:47;;;;;;;;;;;;;;;16.15;52.71;99045.72;4435494;32;19997;-69
2022/02/06 04:25:12;;;;;;;;;;;;;;;16.06;52.76;99060.94;4431641;32;19972;-69
2022/02/06 04:27:38;;;;;;;;;;;;;;;15.74;53.20;99076.66;4421442;32;20004;-69
2022/02/06 04:30:04;;;;;;;;;;;;;;;16.17;52.46;99063.00;4423565;32;19996;-69
2022/02/06 04:32:30;;;;;;;;;;;;;;;16.27;51.99;99073.59;4422734;32;20016;-69
2022/02/06 04:34:56;;;;;;;;;;;;;;;16.01;51.88;99070.22;4423432;32;20638;-69
2022/02/06 04:37:31;;;;;;;;;;;;;;;16.48;51.00;99086.25;4423747;32;19985;-70
2022/02/06 04:53:54;;;;;;;;;;;;;;;15.36;51.07;99080.16;3951850;32;15723500;-70
2022/02/06 05:15:32;;;;;;;;;;;;;;;15.66;49.58;99042.38;4436006;32;20044;-70
2022/02/06 05:28:51;;;;;;;;;;;;;;;15.53;50.16;99041.31;3952069;32;15723589;-70
2022/02/06 05:31:33;;;;;;;;;;;;;;;15.53;50.16;99041.31;4428976;32;19967;-70
2022/02/06 05:33:59;;;;;;;;;;;;;;;15.46;50.09;99030.47;4431012;32;20055;-70
2022/02/06 05:36:24;;;;;;;;;;;;;;;15.52;50.19;99014.25;4431688;32;19950;-70
2022/02/06 05:38:50;;;;;;;;;;;;;;;15.70;49.86;99008.84;4429319;32;19975;-70
2022/02/06 05:41:15;;;;;;;;;;;;;;;15.33;49.92;98998.97;4429406;32;20431;-70
2022/02/06 05:43:41;;;;;;;;;;;;;;;15.79;49.06;99002.16;4430887;32;19988;-69
2022/02/06 05:46:07;;;;;;;;;;;;;;;15.52;49.60;98991.56;4428828;32;20277;-70
2022/02/06 05:48:32;;;;;;;;;;;;;;;15.45;49.71;99023.25;4432676;32;19964;-70
2022/02/06 05:50:58;;;;;;;;;;;;;;;15.68;49.51;99005.75;4428879;32;20393;-70
2022/02/06 05:53:23;;;;;;;;;;;;;;;15.30;50.37;99025.50;4429673;32;20388;-70
2022/02/06 05:55:49;;;;;;;;;;;;;;;15.92;49.09;98989.00;4428247;32;19989;-71
2022/02/06 05:58:14;;;;;;;;;;;;;;;15.81;49.39;98993.91;4431784;32;19945;-71
2022/02/06 06:00:40;;;;;;;;;;;;;;;15.64;49.42;98976.09;4429297;32;19987;-70
2022/02/06 06:03:06;;;;;;;;;;;;;;;15.43;49.43;98984.09;4429900;32;20349;-71
2022/02/06 06:05:32;;;;;;;;;;;;;;;15.45;49.00;98975.06;4429680;32;20004;-71
2022/02/06 06:07:58;;;;;;;;;;;;;;;15.09;49.61;98970.34;4433206;32;19962;-71
2022/02/06 06:10:23;;;;;;;;;;;;;;;15.60;48.78;98970.72;4426866;32;19961;-70
2022/02/06 06:12:49;;;;;;;;;;;;;;;15.48;48.92;98954.19;4428108;32;19996;-70
2022/02/06 06:15:14;;;;;;;;;;;;;;;15.22;49.45;98953.62;4425797;32;20327;-71
2022/02/06 06:17:40;;;;;;;;;;;;;;;15.64;48.96;98931.53;4432378;32;19971;-70
2022/02/06 06:20:10;;;;;;;;;;;;;;;15.46;49.20;98939.75;4428732;32;19976;-71
2022/02/06 06:22:36;;;;;;;;;;;;;;;15.62;48.98;98922.75;4432115;32;19993;-71
2022/02/06 06:25:03;;;;;;;;;;;;;;;15.60;48.89;98942.34;4430526;32;19996;-70
2022/02/06 06:27:29;;;;;;;;;;;;;;;15.47;49.10;98932.81;4415935;32;19984;-70
2022/02/06 06:29:55;;;;;;;;;;;;;;;15.48;48.98;98937.19;4427809;32;20381;-70
2022/02/06 06:32:20;;;;;;;;;;;;;;;15.59;49.02;98940.03;4429195;32;19950;-70
2022/02/06 06:34:46;;;;;;;;;;;;;;;15.45;48.69;98936.16;4431732;32;19957;-70
2022/02/06 06:37:11;;;;;;;;;;;;;;;15.09;49.49;98947.69;4427231;32;19954;-70
2022/02/06 06:39:43;;;;;;;;;;;;;;;15.02;49.36;98963.13;4424909;32;20006;-70
2022/02/06 06:42:09;;;;;;;;;;;;;;;15.15;49.25;98954.13;4417234;32;20040;-70
2022/02/06 06:44:34;;;;;;;;;;;;;;;14.95;49.90;98938.16;4404352;32;20003;-70
2022/02/06 06:47:01;;;;;;;;;;;;;;;15.03;49.93;98949.75;4422152;32;20037;-71
2022/02/06 06:49:26;;;;;;;;;;;;;;;14.68;49.89;98941.66;4419187;32;19999;-69
2022/02/06 06:51:55;;;;;;;;;;;;;;;14.79;49.80;98952.25;4417196;32;19997;-69
2022/02/06 06:54:22;;;;;;;;;;;;;;;14.73;49.75;98940.13;4419765;32;20371;-69
2022/02/06 06:56:59;;;;;;;;;;;;;;;14.59;49.46;98938.28;4420412;32;20000;-70
2022/02/06 06:59:43;;;;;;;;;;;;;;;14.80;49.41;98933.97;4419428;32;20000;-70
2022/02/06 07:02:18;;;;;;;;;;;;;;;14.50;49.06;98949.81;4416859;32;20674;-71
2022/02/06 07:04:44;;;;;;;;;;;;;;;14.33;49.64;98963.13;4417264;32;20034;-71
2022/02/06 07:07:10;;;;;;;;;;;;;;;14.70;48.48;98941.16;4418001;32;19993;-71
2022/02/06 07:09:36;;;;;;;;;;;;;;;14.62;48.89;98959.91;4420907;32;20029;-71
2022/02/06 07:12:02;;;;;;;;;;;;;;;14.74;48.74;98961.50;4420880;32;19993;-71
2022/02/06 07:14:28;;;;;;;;;;;;;;;14.58;49.03;98982.03;4419595;32;20382;-71
2022/02/06 07:16:53;;;;;;;;;;;;;;;14.63;49.31;98969.97;4418042;32;20005;-71
2022/02/06 07:19:19;;;;;;;;;;;;;;;14.61;49.46;98958.38;4418743;32;20320;-70
2022/02/06 07:21:45;;;;;;;;;;;;;;;14.52;49.38;98998.22;4413672;32;20002;-70
2022/02/06 07:24:11;;;;;;;;;;;;;;;14.66;48.70;98971.78;4419769;32;19993;-70
2022/02/06 07:26:39;;;;;;;;;;;;;;;14.93;48.32;98990.91;4417545;32;20598;-70
2022/02/06 07:29:05;;;;;;;;;;;;;;;14.52;48.07;99030.12;4419640;32;20020;-69
2022/02/06 07:31:31;;;;;;;;;;;;;;;14.32;48.62;99004.00;4416117;32;19962;-69
2022/02/06 07:33:56;;;;;;;;;;;;;;;14.70;47.36;98990.03;4420549;32;19949;-69
2022/02/06 07:36:22;;;;;;;;;;;;;;;14.17;47.43;99020.38;4418271;32;20040;-69
2022/02/06 07:38:48;;;;;;;;;;;;;;;14.54;46.51;99015.47;4417079;32;20818;-69
2022/02/06 07:41:13;;;;;;;;;;;;;;;14.78;45.78;99004.50;4419275;32;19957;-69
2022/02/06 07:43:39;;;;;;;;;;;;;;;14.69;45.93;99001.87;4421252;32;20296;-69
2022/02/06 07:46:10;;;;;;;;;;;;;;;15.02;45.58;98993.50;4419412;32;19978;-69
2022/02/06 07:48:37;;;;;;;;;;;;;;;15.03;45.25;99001.50;4419068;32;20381;-69
2022/02/06 07:51:03;;;;;;;;;;;;;;;15.05;44.78;98992.47;4416572;32;19987;-69
2022/02/06 07:53:29;;;;;;;;;;;;;;;15.18;45.36;98992.75;4419462;32;20035;-69
2022/02/06 07:55:55;;;;;;;;;;;;;;;14.59;46.46;98994.87;4406736;32;19997;-69
2022/02/06 07:58:21;;;;;;;;;;;;;;;14.71;46.33;99008.59;4416619;32;20001;-69
2022/02/06 08:00:47;;;;;;;;;;;;;;;14.86;46.49;99025.37;4416980;32;20293;-68
2022/02/06 08:03:12;;;;;;;;;;;;;;;14.07;47.68;99034.69;4418971;32;19964;-68
2022/02/06 08:05:37;;;;;;;;;;;;;;;13.95;47.76;99026.63;4417124;32;19996;-69
2022/02/06 08:08:11;;;;;;;;;;;;;;;14.63;46.74;99032.25;4417162;32;19953;-69
2022/02/06 08:10:36;;;;;;;;;;;;;;;14.45;47.56;99018.50;4415021;32;19997;-69
2022/02/06 08:13:08;;;;;;;;;;;;;;;14.88;46.86;99022.81;4414729;32;19968;-69
2022/02/06 08:15:34;;;;;;;;;;;;;;;14.76;47.27;99010.66;4415125;32;19994;-69
2022/02/06 08:17:59;;;;;;;;;;;;;;;14.53;47.93;99030.88;4415485;32;19984;-69
2022/02/06 08:20:25;;;;;;;;;;;;;;;14.29;48.68;99033.34;4400880;32;19997;-69
2022/02/06 08:22:52;;;;;;;;;;;;;;;14.29;48.88;99024.84;4416252;32;19977;-69
2022/02/06 08:25:18;;;;;;;;;;;;;;;14.83;47.75;99032.84;4419886;32;19961;-69
2022/02/06 08:27:44;;;;;;;;;;;;;;;14.94;47.63;99049.13;4418309;32;19972;-69
2022/02/06 08:30:10;;;;;;;;;;;;;;;15.24;47.14;99056.69;4415535;32;20037;-69
2022/02/06 08:32:36;;;;;;;;;;;;;;;14.94;46.86;99066.88;4416322;32;20371;-69
2022/02/06 08:35:03;;;;;;;;;;;;;;;15.06;46.59;99087.50;4416300;32;19989;-69
2022/02/06 08:37:28;;;;;;;;;;;;;;;15.52;45.94;99090.78;4419401;32;19973;-69
2022/02/06 08:39:54;;;;;;;;;;;;;;;15.58;45.86;99089.53;4417404;32;19954;-69
2022/02/06 08:42:20;;;;;;;;;;;;;;;15.21;47.18;99088.88;4418557;32;20051;-70
2022/02/06 08:44:46;;;;;;;;;;;;;;;15.13;47.81;99095.53;4417573;32;20017;-69
2022/02/06 08:47:13;;;;;;;;;;;;;;;15.02;48.23;99095.47;4417413;32;19958;-69
2022/02/06 08:49:39;;;;;;;;;;;;;;;14.78;48.18;99112.09;4417339;32;19997;-70
2022/02/06 08:52:06;;;;;;;;;;;;;;;14.89;48.46;99109.31;4414602;32;20080;-69
2022/02/06 08:54:33;;;;;;;;;;;;;;;13.97;49.71;99125.88;4416441;32;19961;-69
2022/02/06 08:57:04;;;;;;;;;;;;;;;13.89;49.88;99119.13;4420351;32;20185;-69
2022/02/06 08:59:30;;;;;;;;;;;;;;;13.48;49.87;99095.84;4420494;32;20015;-69
2022/02/06 09:01:57;;;;;;;;;;;;;;;13.85;49.46;99081.81;4415352;32;20453;-69
2022/02/06 09:04:23;;;;;;;;;;;;;;;14.29;48.49;99081.44;4415668;32;19964;-69
2022/02/06 09:06:48;;;;;;;;;;;;;;;13.88;48.64;99070.28;4415379;32;20001;-69
2022/02/06 09:09:15;;;;;;;;;;;;;;;13.82;49.40;99077.16;4416514;32;20065;-70
2022/02/06 09:11:41;;;;;;;;;;;;;;;14.28;48.83;99083.47;4416977;32;19957;-69
2022/02/06 09:14:07;;;;;;;;;;;;;;;14.28;49.30;99077.81;4417829;32;20004;-69
2022/02/06 09:16:32;;;;;;;;;;;;;;;14.54;48.29;99074.91;4416344;32;20109;-69
2022/02/06 09:19:00;;;;;;;;;;;;;;;14.62;48.15;99061.81;4419167;32;19997;-69
2022/02/06 09:21:25;;;;;;;;;;;;;;;14.42;48.94;99070.47;4416704;32;20024;-69
2022/02/06 09:23:51;;;;;;;;;;;;;;;14.66;47.86;99076.53;4419222;32;19953;-69
2022/02/06 09:26:17;;;;;;;;;;;;;;;14.74;47.41;99060.59;4417847;32;20007;-69
2022/02/06 09:28:43;;;;;;;;;;;;;;;15.27;46.74;99067.00;4419189;32;20333;-70
2022/02/06 09:31:09;;;;;;;;;;;;;;;14.61;47.39;99063.09;4415068;32;20001;-69
2022/02/06 09:36:02;;;;;;;;;;;;;;;15.60;45.69;99072.00;4416382;32;19946;-70
2022/02/06 09:38:28;;;;;;;;;;;;;;;15.66;44.47;99087.75;4414312;32;20017;-69
2022/02/06 09:40:53;;;;;;;;;;;;;;;15.57;45.06;99090.81;4415807;32;20013;-69
2022/02/06 09:43:20;;;;;;;;;;;;;;;15.81;44.53;99071.22;4415612;32;20446;-69
2022/02/06 09:45:47;;;;;;;;;;;;;;;15.50;44.99;99073.53;4415790;32;20015;-69
2022/02/06 09:48:13;;;;;;;;;;;;;;;15.22;45.81;99098.16;4412702;32;20030;-70
2022/02/06 09:50:39;;;;;;;;;;;;;;;14.63;46.42;99083.97;4419473;32;20431;-68
2022/02/06 09:53:04;;;;;;;;;;;;;;;14.54;46.49;99080.56;4412993;32;20008;-69
2022/02/06 09:55:30;;;;;;;;;;;;;;;14.86;45.71;99088.47;4415088;32;20027;-69
2022/02/06 10:00:42;;;;;;;;;;;;;;;14.94;45.06;99080.28;4415683;32;19995;-69
2022/02/06 10:03:10;;;;;;;;;;;;;;;15.25;43.77;99106.41;4416001;32;19985;-69
2022/02/06 10:05:38;;;;;;;;;;;;;;;15.46;43.78;99070.16;4417930;32;20334;-69
2022/02/06 10:08:12;;;;;;;;;;;;;;;15.89;42.98;99094.19;4413585;32;19977;-69
2022/02/06 10:10:41;;;;;;;;;;;;;;;15.30;42.96;99076.53;4413774;32;20060;-69
2022/02/06 10:13:07;;;;;;;;;;;;;;;15.46;42.03;99073.78;4418454;32;19953;-69
2022/02/06 10:15:33;;;;;;;;;;;;;;;15.30;42.89;99088.66;4404865;32;20007;-69
2022/02/06 10:17:59;;;;;;;;;;;;;;;14.58;45.49;99100.91;4417258;32;20012;-69
2022/02/06 10:20:31;;;;;;;;;;;;;;;14.63;46.46;99112.25;4416444;32;19996;-69
2022/02/06 10:22:59;;;;;;;;;;;;;;;14.78;46.98;99109.25;4417116;32;20324;-69
2022/02/06 10:25:25;;;;;;;;;;;;;;;13.83;48.88;99115.47;4420418;32;19992;-68
2022/02/06 10:30:37;;;;;;;;;;;;;;;14.04;49.65;99129.03;3937088;32;15931387;-70
2022/02/06 10:33:06;;;;;;;;;;;;;;;14.04;49.65;99129.03;4422977;32;19991;-70
2022/02/06 10:35:40;;;;;;;;;;;;;;;13.01;50.28;99141.50;4422851;32;19958;-69
2022/02/06 10:38:22;;;;;;;;;;;;;;;12.42;51.54;99151.38;4421761;32;20076;-69
2022/02/06 10:41:08;;;;;;;;;;;;;;;12.76;51.13;99141.38;4421513;32;20373;-69
2022/02/06 10:43:34;;;;;;;;;;;;;;;12.97;51.22;99128.81;4421490;32;19949;-70
2022/02/06 10:46:15;;;;;;;;;;;;;;;12.90;51.33;99115.94;4407916;32;20102;-70
2022/02/06 10:48:43;;;;;;;;;;;;;;;13.50;50.52;99120.78;4419358;32;20008;-70
2022/02/06 10:51:09;;;;;;;;;;;;;;;13.66;49.94;99108.87;4420500;32;20005;-70
2022/02/06 10:53:35;;;;;;;;;;;;;;;13.78;49.97;99114.12;4419123;32;19968;-70
2022/02/06 10:56:02;;;;;;;;;;;;;;;14.16;49.21;99127.06;4421824;32;19985;-71
2022/02/06 10:58:31;;;;;;;;;;;;;;;14.52;48.65;99128.41;4420922;32;20004;-71
2022/02/06 11:00:57;;;;;;;;;;;;;;;14.35;48.12;99138.81;4418960;32;20045;-71
2022/02/06 11:03:31;;;;;;;;;;;;;;;14.64;48.14;99132.87;4420633;32;19964;-70
2022/02/06 11:06:07;;;;;;;;;;;;;;;14.56;48.19;99131.78;4419905;32;20037;-70
2022/02/06 11:08:34;;;;;;;;;;;;;;;14.41;48.92;99145.28;4420379;32;19957;-70
2022/02/06 11:11:08;;;;;;;;;;;;;;;14.67;48.00;99148.84;4418357;32;20027;-71
2022/02/06 11:13:34;;;;;;;;;;;;;;;14.60;48.45;99138.00;4420984;32;19970;-71
2022/02/06 11:16:04;;;;;;;;;;;;;;;14.57;47.83;99147.50;4418964;32;20436;-70
2022/02/06 11:18:39;;;;;;;;;;;;;;;14.37;47.37;99127.78;4419239;32;20372;-71
2022/02/06 11:21:06;;;;;;;;;;;;;;;14.11;47.34;99104.41;4420949;32;19954;-70
2022/02/06 11:26:17;;;;;;;;;;;;;;;15.12;45.13;99157.09;3953154;32;15724592;-70
2022/02/06 11:28:42;;;;;;;;;;;;;;;15.12;45.13;99157.09;4431938;32;19956;-70
2022/02/06 11:31:08;;;;;;;;;;;;;;;14.75;45.36;99141.41;4429475;32;20036;-70
2022/02/06 11:33:34;;;;;;;;;;;;;;;14.37;46.19;99150.41;4428997;32;19993;-70
2022/02/06 11:36:05;;;;;;;;;;;;;;;14.07;48.11;99153.50;4415115;32;20055;-69
2022/02/06 11:44:15;;;;;;;;;;;;;;;13.59;49.36;99171.47;3952930;32;15727580;-69
2022/02/06 11:49:18;;;;;;;;;;;;;;;14.13;48.94;99167.69;3960569;31;15716309;-71
2022/02/06 11:54:29;;;;;;;;;;;;;;;14.63;46.33;99148.31;3952288;32;15725589;-70
2022/02/06 11:57:18;;;;;;;;;;;;;;;14.63;46.33;99148.31;4435210;32;20393;-70
2022/02/06 12:00:04;;;;;;;;;;;;;;;14.05;46.80;99158.88;4433357;32;19993;-70
2022/02/06 12:02:31;;;;;;;;;;;;;;;14.28;45.89;99145.72;4432343;32;19984;-70
2022/02/06 12:07:55;;;;;;;;;;;;;;;15.13;44.80;99164.28;3951433;32;15723629;-71
2022/02/06 12:16:00;;;;;;;;;;;;;;;13.99;48.80;99191.19;3947289;32;15724355;-70
2022/02/06 12:18:31;;;;;;;;;;;;;;;13.99;48.80;99191.19;4416053;32;19968;-70
2022/02/06 12:20:57;;;;;;;;;;;;;;;12.94;51.00;99144.72;4427594;32;20491;-70
2022/02/06 12:23:43;;;;;;;;;;;;;;;12.51;50.11;99130.75;4431573;32;19993;-70
2022/02/06 12:26:29;;;;;;;;;;;;;;;12.49;50.22;99153.03;4429603;32;20350;-70
2022/02/06 12:28:56;;;;;;;;;;;;;;;13.12;49.94;99140.88;4427068;32;19958;-71
2022/02/06 12:31:28;;;;;;;;;;;;;;;13.85;48.31;99133.50;4429164;32;19968;-71
2022/02/06 12:33:59;;;;;;;;;;;;;;;14.31;48.17;99110.78;4429873;32;19995;-71
2022/02/06 12:39:15;;;;;;;;;;;;;;;13.38;49.16;99182.03;3950909;32;15737337;-70
2022/02/06 12:41:44;;;;;;;;;;;;;;;13.38;49.16;99182.03;4432462;32;19997;-69
2022/02/06 12:44:11;;;;;;;;;;;;;;;12.81;50.22;99223.31;4415421;32;20450;-69
2022/02/06 12:46:38;;;;;;;;;;;;;;;12.08;50.87;99138.81;4430519;32;20023;-69
2022/02/06 12:49:03;;;;;;;;;;;;;;;12.74;50.47;99127.78;4431374;32;20039;-69
2022/02/06 12:51:30;;;;;;;;;;;;;;;12.57;50.45;99125.97;4423867;32;20362;-69
2022/02/06 12:54:12;;;;;;;;;;;;;;;12.69;51.14;99127.66;4431298;32;19958;-69
2022/02/06 12:56:39;;;;;;;;;;;;;;;12.00;52.86;99125.59;4430240;32;20355;-69
2022/02/06 12:59:05;;;;;;;;;;;;;;;12.24;52.77;99143.16;4432224;32;21029;-69
2022/02/06 13:04:09;;;;;;;;;;;;;;;13.56;50.57;99110.31;3953762;32;15722529;-69
2022/02/06 13:06:36;;;;;;;;;;;;;;;13.56;50.57;99110.31;4428095;32;19961;-69
2022/02/06 13:09:05;;;;;;;;;;;;;;;13.61;49.49;99109.59;4430287;32;20335;-69
2022/02/06 13:11:40;;;;;;;;;;;;;;;13.39;49.70;99104.50;4429495;32;20327;-70
2022/02/06 13:14:21;;;;;;;;;;;;;;;13.16;49.18;99127.31;4430436;32;20386;-71
2022/02/06 13:16:59;;;;;;;;;;;;;;;12.53;50.81;99176.97;4426563;32;19989;-68
2022/02/06 13:19:35;;;;;;;;;;;;;;;12.71;51.27;99165.44;4428632;32;19961;-68
2022/02/06 13:30:17;;;;;;;;;;;;;;;12.64;51.37;99167.91;4431219;32;19989;-69
2022/02/06 13:32:59;;;;;;;;;;;;;;;12.71;51.01;99168.25;4429505;32;19989;-70
2022/02/06 13:35:40;;;;;;;;;;;;;;;12.43;51.53;99155.00;4430975;32;20099;-70
2022/02/06 13:38:08;;;;;;;;;;;;;;;12.37;51.37;99143.62;4429194;32;19993;-70
2022/02/06 13:40:39;;;;;;;;;;;;;;;12.65;50.61;99133.53;4425409;32;19953;-70
2022/02/06 13:43:09;;;;;;;;;;;;;;;12.54;49.80;99126.94;4430238;32;19964;-68
2022/02/06 13:45:36;;;;;;;;;;;;;;;12.10;50.44;99138.31;4429162;32;20005;-68
2022/02/06 13:48:01;;;;;;;;;;;;;;;13.21;49.77;99146.38;4427985;32;20054;-68
2022/02/06 13:50:28;;;;;;;;;;;;;;;12.50;49.51;99163.84;4426715;32;19965;-68
2022/02/06 13:53:10;;;;;;;;;;;;;;;12.43;50.16;99175.53;4427860;32;19954;-68
2022/02/06 13:55:45;;;;;;;;;;;;;;;12.54;50.01;99200.28;4430797;32;19971;-70
2022/02/06 13:58:11;;;;;;;;;;;;;;;12.46;50.71;99191.47;4429130;32;20013;-69
2022/02/06 14:00:37;;;;;;;;;;;;;;;12.70;49.63;99177.22;4423768;32;19961;-69
2022/02/06 14:03:02;;;;;;;;;;;;;;;12.43;50.40;99192.47;4426559;32;20712;-69
2022/02/06 14:05:29;;;;;;;;;;;;;;;12.32;50.07;99202.75;4413934;32;19977;-68
2022/02/06 14:08:16;;;;;;;;;;;;;;;13.18;49.63;99181.25;4427976;32;20317;-68
2022/02/06 14:11:01;;;;;;;;;;;;;;;13.25;48.76;99158.22;4427643;32;20031;-68
2022/02/06 14:13:28;;;;;;;;;;;;;;;13.58;48.57;99150.94;4427123;32;19949;-68
2022/02/06 14:16:11;;;;;;;;;;;;;;;13.51;47.81;99167.53;4425173;32;20026;-68
2022/02/06 14:18:55;;;;;;;;;;;;;;;13.44;46.99;99171.56;4432220;32;20000;-68
2022/02/06 14:21:20;;;;;;;;;;;;;;;13.62;47.54;99204.41;4428289;32;19958;-68
2022/02/06 14:24:02;;;;;;;;;;;;;;;12.57;49.31;99208.56;4427469;32;19989;-68
2022/02/06 14:26:28;;;;;;;;;;;;;;;11.84;50.43;99227.53;4427248;32;19996;-69
2022/02/06 14:28:54;;;;;;;;;;;;;;;12.19;51.94;99227.66;4426405;32;20011;-69
2022/02/06 14:31:21;;;;;;;;;;;;;;;11.91;52.99;99205.38;4424003;32;19958;-69
2022/02/06 14:33:47;;;;;;;;;;;;;;;11.94;52.39;99189.56;4430596;32;19965;-69
2022/02/06 14:36:17;;;;;;;;;;;;;;;12.13;51.69;99173.22;4428342;32;19999;-69
2022/02/06 14:38:57;;;;;;;;;;;;;;;12.57;50.26;99173.91;4415075;32;19968;-70
2022/02/06 14:41:34;;;;;;;;;;;;;;;12.45;50.62;99161.69;4415987;32;19992;-69
2022/02/06 14:44:01;;;;;;;;;;;;;;;13.05;48.92;99180.81;4415645;32;19978;-69
2022/02/06 14:46:29;;;;;;;;;;;;;;;13.18;48.38;99190.50;4401334;32;19972;-69
2022/02/06 14:48:54;;;;;;;;;;;;;;;13.69;47.18;99215.28;4417601;32;20083;-70
2022/02/06 14:51:20;;;;;;;;;;;;;;;13.82;46.65;99222.13;4419547;32;20410;-70
2022/02/06 14:53:46;;;;;;;;;;;;;;;13.67;46.50;99193.19;4420467;32;20101;-69
2022/02/06 14:56:12;;;;;;;;;;;;;;;13.59;45.43;99196.91;4418568;32;20003;-69
2022/02/06 14:58:38;;;;;;;;;;;;;;;13.91;45.56;99224.03;4416460;32;19949;-69
2022/02/06 15:01:04;;;;;;;;;;;;;;;13.47;46.80;99268.72;4414081;32;20046;-69
2022/02/06 15:03:30;;;;;;;;;;;;;;;12.65;50.28;99321.84;4417388;32;19958;-70
2022/02/06 15:05:55;;;;;;;;;;;;;;;12.30;50.81;99259.66;4417247;32;20002;-69
2022/02/06 15:08:21;;;;;;;;;;;;;;;12.51;50.23;99246.41;4418306;32;20015;-69
2022/02/06 15:10:49;;;;;;;;;;;;;;;12.20;48.62;99252.56;4415192;32;20004;-69
2022/02/06 15:13:15;;;;;;;;;;;;;;;12.23;47.95;99243.12;4420402;32;19989;-70
2022/02/06 15:15:45;;;;;;;;;;;;;;;11.60;46.58;99266.97;4416558;32;20323;-70
2022/02/06 15:18:36;;;;;;;;;;;;;;;12.14;46.36;99243.22;4414914;32;19969;-70
2022/02/06 15:20:56;;;;;;;;;;;;;;;12.50;46.60;99259.75;4415852;32;20004;-69
2022/02/06 15:23:23;;;;;;;;;;;;;;;12.06;47.93;99302.03;4416200;32;19990;-69
2022/02/06 15:25:50;;;;;;;;;;;;;;;12.13;48.25;99280.34;4416022;32;19976;-69
2022/02/06 15:28:15;;;;;;;;;;;;;;;11.53;50.46;99272.22;4414811;32;20224;-69
2022/02/06 15:30:41;;;;;;;;;;;;;;;11.45;49.36;99276.66;4413868;32;20012;-69
2022/02/06 15:33:06;;;;;;;;;;;;;;;11.82;48.46;99287.19;4419571;32;19962;-69